Aviation Digital Data Service (ADDS)

Output produced by METARs form (1719 UTC 16 June 2019)
found at http://www.aviationweather.gov/metar/data/
 
Forecast for: VTCC (CHIANG MAI(CIV/A, TH)
Text: TAF VTCC 161100Z 1612/1718 24007KT 9999 BKN035
Forecast period: 1200 UTC 16 June 2019 to 1800 UTC 17 June 2019
Forecast type: FROM: standard forecast or significant change
Winds: from the WSW (240 degrees) at 8 MPH (7 knots; 3.6 m/s)
Visibility: 6 or more miles 10+ km)
Ceiling: 3500 feet AGL
Clouds: broken clouds at 3500 feet AGL
Weather: no significant weather forecast for this period
Text: TEMPO 1612/1615 VRB15G25KT 5000 TSRA FEW025CB BKN035
Forecast period: 1200 to 1500 UTC 16 June 2019
Forecast type: TEMPORARY: The following changes expected for less than half the time period
Winds: variable direction winds at 17 MPH (15 knots; 7.7 m/s)
gusting to 29 MPH (25 knots; 12.9 m/s)
Visibility: 3 miles (5 km)
Ceiling: 3500 feet AGL
Clouds: few clouds at 2500 feet AGL
broken clouds at 3500 feet AGL
Weather: TSRA  (rain associated with thunderstorm(s))